Time;durP1;ratioP1;P1;durP2;ratioP2;P2;SDS_P1;SDS_P2;PMS_P1;PMS_P2;Temp;Humidity;BMP_temperature;BMP_pressure;BME280_temperature;BME280_humidity;BME280_pressure;Samples;Min_cycle;Max_cycle;Signal;HPM_P1;HPM_P2
2022/11/07 00:01:15;;;;;;;4.70;2.30;;;9.50;99.90;;;;;;5033073;28;20179;-85
2022/11/07 00:03:41;;;;;;;4.40;2.80;;;9.50;99.90;;;;;;5034264;28;20191;-85
2022/11/07 00:06:07;;;;;;;3.40;2.10;;;9.50;99.90;;;;;;5033061;28;20181;-85
2022/11/07 00:08:33;;;;;;;3.67;1.80;;;9.50;99.90;;;;;;5033024;28;20198;-85
2022/11/07 00:11:00;;;;;;;2.80;2.20;;;9.50;99.90;;;;;;5044478;28;20651;-85
2022/11/07 00:13:27;;;;;;;2.23;1.40;;;9.50;99.90;;;;;;5018305;28;20211;-85
2022/11/07 00:15:56;;;;;;;1.43;1.13;;;9.50;99.90;;;;;;5033274;28;20311;-85
2022/11/07 00:18:22;;;;;;;1.63;1.40;;;9.50;99.90;;;;;;5032564;28;20555;-86
2022/11/07 00:20:48;;;;;;;1.17;1.07;;;9.50;99.90;;;;;;5032843;28;20167;-85
2022/11/07 00:23:14;;;;;;;3.93;1.40;;;9.50;99.90;;;;;;5031056;28;20218;-85
2022/11/07 00:25:40;;;;;;;3.43;1.50;;;9.40;99.90;;;;;;5030998;28;20278;-85
2022/11/07 00:28:06;;;;;;;1.73;1.60;;;9.40;99.90;;;;;;5032380;28;20186;-85
2022/11/07 00:30:32;;;;;;;2.20;1.20;;;9.30;99.90;;;;;;5032417;28;20182;-85
2022/11/07 00:32:57;;;;;;;1.53;1.20;;;9.30;99.90;;;;;;5032033;28;20234;-86
2022/11/07 00:35:23;;;;;;;1.80;1.50;;;9.20;99.90;;;;;;5033689;28;20268;-85
2022/11/07 00:37:49;;;;;;;1.80;1.50;;;9.10;99.90;;;;;;5032252;28;20175;-85
2022/11/07 00:40:15;;;;;;;1.60;1.20;;;9.10;99.90;;;;;;5032775;28;20178;-85
2022/11/07 00:42:41;;;;;;;3.80;1.80;;;9.00;99.90;;;;;;5032793;28;20186;-85
2022/11/07 00:45:08;;;;;;;1.97;1.40;;;9.00;99.90;;;;;;5032329;28;20273;-85
2022/11/07 00:47:34;;;;;;;2.37;1.20;;;8.90;99.90;;;;;;5032060;28;20666;-85
2022/11/07 00:50:01;;;;;;;1.73;1.20;;;8.90;99.90;;;;;;5032357;28;20194;-85
2022/11/07 00:52:26;;;;;;;1.60;1.47;;;8.90;99.90;;;;;;5032165;28;20257;-85
2022/11/07 00:54:52;;;;;;;1.30;1.00;;;8.90;99.90;;;;;;5032042;28;20293;-86
2022/11/07 00:57:20;;;;;;;2.33;1.20;;;8.90;99.90;;;;;;5032194;28;20207;-85
2022/11/07 00:59:50;;;;;;;1.70;1.20;;;8.90;99.90;;;;;;5032518;28;20249;-85
2022/11/07 01:02:16;;;;;;;3.30;1.30;;;8.90;99.90;;;;;;5032851;28;20246;-85
2022/11/07 01:07:26;;;;;;;1.30;1.20;;;8.90;99.90;;;;;;5048640;28;20170;-85
2022/11/07 01:09:52;;;;;;;1.90;1.30;;;9.00;99.90;;;;;;5031830;28;20186;-85
2022/11/07 01:12:18;;;;;;;1.47;1.10;;;9.00;99.90;;;;;;5031760;28;20178;-86
2022/11/07 01:14:44;;;;;;;2.23;1.73;;;8.90;99.90;;;;;;5031954;28;20217;-85
2022/11/07 01:17:09;;;;;;;1.87;1.40;;;8.90;99.90;;;;;;5031905;28;20178;-85
2022/11/07 01:19:35;;;;;;;1.30;1.20;;;9.00;99.90;;;;;;5031681;28;20179;-85
2022/11/07 01:22:01;;;;;;;1.90;1.20;;;9.00;99.90;;;;;;5031982;28;20178;-85
2022/11/07 01:24:27;;;;;;;1.87;1.50;;;9.00;99.90;;;;;;5031662;28;20214;-85
2022/11/07 01:26:53;;;;;;;1.10;1.00;;;8.90;99.90;;;;;;5031589;28;20180;-86
2022/11/07 01:29:19;;;;;;;1.20;1.10;;;8.90;99.90;;;;;;5031602;28;20183;-85
2022/11/07 01:31:45;;;;;;;2.07;1.03;;;8.90;99.90;;;;;;5031586;28;20179;-85
2022/11/07 01:34:11;;;;;;;1.33;1.10;;;8.90;99.90;;;;;;5029988;28;20211;-85
2022/11/07 01:36:37;;;;;;;1.53;1.17;;;8.90;99.90;;;;;;4995651;28;20179;-85
2022/11/07 01:39:04;;;;;;;1.50;1.40;;;8.90;99.90;;;;;;4995247;28;20183;-85
2022/11/07 01:41:33;;;;;;;1.67;1.37;;;8.90;99.90;;;;;;4995670;28;20182;-85
2022/11/07 01:44:05;;;;;;;1.47;1.27;;;8.90;99.90;;;;;;4994449;28;20203;-85
2022/11/07 01:46:52;;;;;;;2.30;1.40;;;8.90;99.90;;;;;;5014214;28;20232;-85
2022/11/07 01:49:33;;;;;;;1.50;1.40;;;8.90;99.90;;;;;;5031572;28;20179;-85
2022/11/07 01:52:06;;;;;;;1.60;1.30;;;9.00;99.90;;;;;;5031543;28;20187;-85
2022/11/07 01:54:47;;;;;;;2.17;1.10;;;8.90;99.90;;;;;;5030960;28;20246;-85
2022/11/07 01:57:24;;;;;;;1.10;1.00;;;8.90;99.90;;;;;;5031125;28;20190;-85
2022/11/07 01:59:53;;;;;;;1.90;1.20;;;8.90;99.90;;;;;;5030841;28;20261;-85
2022/11/07 02:02:19;;;;;;;1.60;1.10;;;8.90;99.90;;;;;;5031113;28;20170;-85
2022/11/07 02:04:45;;;;;;;1.27;1.17;;;8.80;99.90;;;;;;5031380;28;20281;-85
2022/11/07 02:07:22;;;;;;;1.30;1.20;;;8.80;99.90;;;;;;5030903;28;20178;-85
2022/11/07 02:09:52;;;;;;;1.70;1.20;;;8.90;99.90;;;;;;5031235;28;20170;-85
2022/11/07 02:12:23;;;;;;;1.70;1.07;;;8.90;99.90;;;;;;5031358;28;20188;-86
2022/11/07 02:14:49;;;;;;;1.33;1.10;;;8.80;99.90;;;;;;5031004;28;20202;-85
2022/11/07 02:17:16;;;;;;;1.33;1.03;;;8.80;99.90;;;;;;5031171;28;20185;-85
2022/11/07 02:19:51;;;;;;;1.57;1.20;;;8.70;99.90;;;;;;5031432;28;20190;-85
2022/11/07 02:22:42;;;;;;;1.97;1.60;;;8.70;99.90;;;;;;5030945;28;20181;-85
2022/11/07 02:25:14;;;;;;;1.50;1.10;;;8.70;99.90;;;;;;5031157;28;20202;-85
2022/11/07 02:27:41;;;;;;;2.13;1.37;;;8.70;99.90;;;;;;5030885;28;20167;-85
2022/11/07 02:30:13;;;;;;;1.80;1.00;;;8.60;99.90;;;;;;5031100;28;20289;-85
2022/11/07 02:32:39;;;;;;;1.10;1.00;;;8.60;99.90;;;;;;5031030;28;20187;-85
2022/11/07 02:35:43;;;;;;;1.23;0.87;;;8.60;99.90;;;;;;5014667;28;20203;-85
2022/11/07 02:38:21;;;;;;;1.30;1.20;;;8.60;99.90;;;;;;5030394;28;20209;-86
2022/11/07 02:40:53;;;;;;;2.67;1.10;;;8.50;99.90;;;;;;5031113;28;20178;-86
2022/11/07 02:43:22;;;;;;;1.50;1.10;;;8.50;99.90;;;;;;5030908;28;20202;-86
2022/11/07 02:45:49;;;;;;;1.17;0.90;;;8.50;99.90;;;;;;5030955;28;20183;-85
2022/11/07 02:48:15;;;;;;;1.40;1.20;;;8.50;99.90;;;;;;5030748;28;20187;-85
2022/11/07 02:50:42;;;;;;;1.20;1.10;;;8.50;99.90;;;;;;5030922;28;20182;-85
2022/11/07 02:53:08;;;;;;;2.23;1.73;;;8.50;99.90;;;;;;5047135;28;20209;-85
2022/11/07 02:55:33;;;;;;;3.63;2.17;;;8.50;99.90;;;;;;5032522;28;20175;-85
2022/11/07 02:58:06;;;;;;;3.30;2.17;;;8.50;99.90;;;;;;5034052;28;20204;-85
2022/11/07 03:00:32;;;;;;;3.53;2.30;;;8.50;99.90;;;;;;5034342;28;20236;-85
2022/11/07 03:02:58;;;;;;;2.33;1.83;;;8.50;99.90;;;;;;5034146;28;20190;-85
2022/11/07 03:05:23;;;;;;;2.07;1.50;;;8.50;99.90;;;;;;5022839;28;20187;-85
2022/11/07 03:07:49;;;;;;;1.87;1.67;;;8.50;99.90;;;;;;5014209;28;20188;-85
2022/11/07 03:10:16;;;;;;;2.83;1.50;;;8.60;99.90;;;;;;5014676;28;20194;-85
2022/11/07 03:12:43;;;;;;;1.90;1.40;;;8.60;99.90;;;;;;5041371;28;20183;-85
2022/11/07 03:15:12;;;;;;;1.97;1.40;;;8.60;99.90;;;;;;5033905;28;20285;-85
2022/11/07 03:17:38;;;;;;;1.60;1.47;;;8.60;99.90;;;;;;5033782;28;20182;-85
2022/11/07 03:20:05;;;;;;;1.40;1.20;;;8.60;99.90;;;;;;5034341;28;20171;-85
2022/11/07 03:22:31;;;;;;;2.07;1.20;;;8.60;99.90;;;;;;5033859;28;20231;-86
2022/11/07 03:24:57;;;;;;;2.43;1.40;;;8.60;99.90;;;;;;5033868;28;20194;-85
2022/11/07 03:27:23;;;;;;;1.90;1.20;;;8.50;99.90;;;;;;5033885;28;20182;-85
2022/11/07 03:29:48;;;;;;;1.40;1.30;;;8.50;99.90;;;;;;5035021;28;20261;-85
2022/11/07 03:32:14;;;;;;;2.33;1.30;;;8.40;99.90;;;;;;5017241;28;20175;-85
2022/11/07 03:34:40;;;;;;;2.33;1.30;;;8.30;99.90;;;;;;5033770;28;20210;-85
2022/11/07 03:37:06;;;;;;;4.17;1.80;;;8.30;99.90;;;;;;5050258;28;20316;-85
2022/11/07 03:39:32;;;;;;;1.80;1.30;;;8.30;99.90;;;;;;5033603;28;20182;-85
2022/11/07 03:41:58;;;;;;;1.80;1.17;;;8.30;99.90;;;;;;5033491;28;20266;-85
2022/11/07 03:44:24;;;;;;;1.37;1.10;;;8.30;99.90;;;;;;5033651;28;20260;-85
2022/11/07 03:46:49;;;;;;;2.13;1.37;;;8.40;99.90;;;;;;5033398;28;20663;-85
2022/11/07 03:49:15;;;;;;;2.90;1.43;;;8.40;99.90;;;;;;5033758;28;20193;-85
2022/11/07 03:51:41;;;;;;;3.07;1.50;;;8.40;99.90;;;;;;5033342;28;20206;-85
2022/11/07 03:54:07;;;;;;;1.77;1.13;;;8.50;99.90;;;;;;5033428;28;20218;-85
2022/11/07 03:56:33;;;;;;;2.53;1.20;;;8.50;99.90;;;;;;5033480;28;20187;-85
2022/11/07 03:58:59;;;;;;;1.63;1.23;;;8.50;99.90;;;;;;5033015;28;20179;-85
2022/11/07 04:01:26;;;;;;;1.93;1.10;;;8.60;99.90;;;;;;5033575;28;20252;-85
2022/11/07 04:03:52;;;;;;;2.20;1.30;;;8.60;99.90;;;;;;5033458;28;20218;-85
2022/11/07 04:06:18;;;;;;;2.23;1.27;;;8.60;99.90;;;;;;5032502;28;20186;-85
2022/11/07 04:08:44;;;;;;;1.70;1.27;;;8.60;99.90;;;;;;5032972;28;20209;-85
2022/11/07 04:17:17;;;;;;;2.37;1.37;;;8.60;99.90;;;;;;5033352;28;20210;-85
2022/11/07 04:19:25;;;;;;;2.73;1.50;;;8.60;99.90;;;;;;5032808;28;20178;-85
2022/11/07 04:21:51;;;;;;;2.90;1.37;;;8.60;99.90;;;;;;5033036;28;20186;-85
2022/11/07 04:24:17;;;;;;;4.53;1.60;;;8.60;99.90;;;;;;5032735;28;20218;-85
2022/11/07 04:29:27;;;;;;;3.23;1.50;;;8.60;99.90;;;;;;5032715;28;20178;-85
2022/11/07 04:31:53;;;;;;;1.10;1.00;;;8.60;99.90;;;;;;5032459;28;20197;-86
2022/11/07 04:34:19;;;;;;;1.77;1.23;;;8.60;99.90;;;;;;5032499;28;20211;-85
2022/11/07 04:36:45;;;;;;;1.53;1.30;;;8.70;99.90;;;;;;5048712;28;20179;-85
2022/11/07 04:39:41;;;;;;;4.17;1.33;;;8.60;99.90;;;;;;5031629;28;20174;-87
2022/11/07 04:42:08;;;;;;;3.37;1.40;;;8.70;99.90;;;;;;5053025;28;20166;-87
2022/11/07 04:44:58;;;;;;;2.80;1.40;;;8.70;99.90;;;;;;5036357;28;20206;-87
2022/11/07 04:47:26;;;;;;;2.13;1.20;;;8.70;99.90;;;;;;5050231;28;20197;-87
2022/11/07 04:49:58;;;;;;;1.90;1.37;;;8.70;99.90;;;;;;5012444;28;20183;-87
2022/11/07 04:52:25;;;;;;;2.03;1.80;;;8.80;99.90;;;;;;4996449;28;20182;-87
2022/11/07 04:54:51;;;;;;;1.87;1.60;;;8.80;99.90;;;;;;5010739;28;20293;-87
2022/11/07 04:57:16;;;;;;;2.90;2.00;;;8.80;99.90;;;;;;5032012;28;20273;-87
2022/11/07 04:59:42;;;;;;;3.00;2.20;;;8.80;99.90;;;;;;5032138;28;20183;-86
2022/11/07 05:02:10;;;;;;;1.80;1.30;;;8.80;99.90;;;;;;5031911;28;20186;-87
2022/11/07 05:04:36;;;;;;;2.70;1.20;;;8.80;99.90;;;;;;5031249;28;20285;-86
2022/11/07 05:07:02;;;;;;;2.00;1.73;;;8.70;99.90;;;;;;5031867;28;20187;-86
2022/11/07 05:09:28;;;;;;;2.23;1.57;;;8.80;99.90;;;;;;5032257;28;20183;-86
2022/11/07 05:11:55;;;;;;;4.63;1.60;;;8.80;99.90;;;;;;5031884;28;20178;-86
2022/11/07 05:14:21;;;;;;;4.30;1.97;;;8.80;99.90;;;;;;5031697;28;20300;-87
2022/11/07 05:16:49;;;;;;;2.70;1.87;;;8.80;99.90;;;;;;5031563;28;20171;-87
2022/11/07 05:19:16;;;;;;;3.07;2.10;;;8.80;99.90;;;;;;5032022;28;20182;-87
2022/11/07 05:21:46;;;;;;;2.63;1.90;;;8.80;99.90;;;;;;5031953;28;20178;-87
2022/11/07 05:24:13;;;;;;;6.27;1.70;;;8.90;99.90;;;;;;5031740;28;20214;-86
2022/11/07 05:26:39;;;;;;;2.83;1.87;;;8.90;99.90;;;;;;5031086;28;20175;-87
2022/11/07 05:29:07;;;;;;;3.30;1.60;;;9.00;99.90;;;;;;5031886;28;20268;-86
2022/11/07 05:31:34;;;;;;;3.97;1.80;;;9.00;99.90;;;;;;5031875;28;20707;-86
2022/11/07 05:33:59;;;;;;;3.63;2.10;;;9.10;99.90;;;;;;5031483;28;20218;-86
2022/11/07 05:36:28;;;;;;;2.47;1.43;;;9.10;99.90;;;;;;5031751;28;20174;-86
2022/11/07 05:38:54;;;;;;;3.30;2.10;;;9.20;99.90;;;;;;5048058;28;20183;-86
2022/11/07 05:41:20;;;;;;;3.23;1.33;;;9.20;99.90;;;;;;5031710;28;20236;-87
2022/11/07 05:43:46;;;;;;;2.47;1.40;;;9.20;99.90;;;;;;5031299;28;20207;-86
2022/11/07 05:46:13;;;;;;;3.80;1.50;;;9.20;99.90;;;;;;5048080;28;20175;-86
2022/11/07 05:48:39;;;;;;;3.03;1.77;;;9.20;99.90;;;;;;5031492;28;20280;-86
2022/11/07 05:51:06;;;;;;;4.37;1.80;;;9.20;99.90;;;;;;5031385;28;20265;-86
2022/11/07 05:53:32;;;;;;;3.33;2.00;;;9.20;99.90;;;;;;5031177;28;20218;-86
2022/11/07 05:55:58;;;;;;;3.87;1.70;;;9.20;99.90;;;;;;5047951;28;20175;-86
2022/11/07 05:58:24;;;;;;;5.33;1.60;;;9.20;99.90;;;;;;5031377;28;20244;-86
2022/11/07 06:00:50;;;;;;;4.83;1.70;;;9.20;99.90;;;;;;5031296;28;20181;-86
2022/11/07 06:03:18;;;;;;;2.83;1.83;;;9.20;99.90;;;;;;5031190;28;20203;-86
2022/11/07 06:05:45;;;;;;;5.70;2.30;;;9.20;99.90;;;;;;5033365;28;20206;-86
2022/11/07 06:08:12;;;;;;;4.23;2.27;;;9.20;99.90;;;;;;5011217;28;20187;-86
2022/11/07 06:10:39;;;;;;;2.60;1.40;;;9.20;99.90;;;;;;5011495;28;20187;-86
2022/11/07 06:13:09;;;;;;;3.37;1.40;;;9.30;99.90;;;;;;5011392;28;20199;-86
2022/11/07 06:15:36;;;;;;;2.17;1.60;;;9.40;99.90;;;;;;5011568;28;20175;-86
2022/11/07 06:18:03;;;;;;;2.73;1.40;;;9.40;99.90;;;;;;5027632;28;20207;-86
2022/11/07 06:20:30;;;;;;;2.73;1.33;;;9.40;99.90;;;;;;5010884;28;20180;-86
2022/11/07 06:23:00;;;;;;;2.70;1.20;;;9.50;99.90;;;;;;5011307;28;20191;-86
2022/11/07 06:25:27;;;;;;;2.30;1.33;;;9.50;99.90;;;;;;5011323;28;20178;-84
2022/11/07 06:27:57;;;;;;;1.90;1.43;;;9.40;99.90;;;;;;4994957;28;20183;-86
2022/11/07 06:30:23;;;;;;;2.60;1.50;;;9.40;99.90;;;;;;5013970;28;20179;-86
2022/11/07 06:32:49;;;;;;;4.73;1.80;;;9.40;99.90;;;;;;5031632;28;20180;-86
2022/11/07 06:35:18;;;;;;;4.07;1.83;;;9.30;99.90;;;;;;5047998;28;20258;-87
2022/11/07 06:37:44;;;;;;;2.50;1.73;;;9.30;99.90;;;;;;5046218;28;20191;-86
2022/11/07 06:40:10;;;;;;;3.50;1.67;;;9.30;99.90;;;;;;4999524;28;20206;-86
2022/11/07 06:42:36;;;;;;;5.90;2.30;;;9.30;99.90;;;;;;4998909;28;20175;-86
2022/11/07 06:45:02;;;;;;;2.57;1.57;;;9.30;99.90;;;;;;5005952;28;20195;-86
2022/11/07 06:47:28;;;;;;;2.70;2.00;;;9.30;99.90;;;;;;5001175;28;20202;-86
2022/11/07 06:49:54;;;;;;;3.17;2.37;;;9.30;99.90;;;;;;4999112;28;20183;-86
2022/11/07 06:52:21;;;;;;;8.13;4.40;;;9.20;99.90;;;;;;4998926;28;20190;-86
2022/11/07 06:54:46;;;;;;;9.33;5.27;;;9.20;99.90;;;;;;4998730;28;20210;-86
2022/11/07 06:57:12;;;;;;;10.60;4.70;;;9.20;99.90;;;;;;4998537;28;20176;-86
2022/11/07 06:59:38;;;;;;;8.13;4.20;;;9.10;99.90;;;;;;4999199;28;20229;-86
2022/11/07 07:02:04;;;;;;;8.70;3.70;;;9.10;99.90;;;;;;5011702;28;20182;-86
2022/11/07 07:04:30;;;;;;;7.30;3.50;;;9.10;99.90;;;;;;5034894;28;20198;-86
2022/11/07 07:06:56;;;;;;;7.00;3.27;;;9.10;99.90;;;;;;5016346;28;20171;-87
2022/11/07 07:09:22;;;;;;;8.33;3.63;;;9.00;99.90;;;;;;5034475;28;20174;-86
2022/11/07 07:11:48;;;;;;;4.50;2.70;;;9.00;99.90;;;;;;5008539;28;20186;-86
2022/11/07 07:14:14;;;;;;;5.60;2.60;;;9.00;99.90;;;;;;4998284;28;20218;-86
2022/11/07 07:16:39;;;;;;;5.03;2.63;;;9.00;99.90;;;;;;4997794;28;20182;-86
2022/11/07 07:19:05;;;;;;;6.00;2.47;;;9.00;99.90;;;;;;4998389;28;20176;-87
2022/11/07 07:21:32;;;;;;;3.73;2.40;;;9.10;99.90;;;;;;4998636;28;20301;-87
2022/11/07 07:23:58;;;;;;;6.10;2.17;;;9.10;99.90;;;;;;5010663;28;20218;-82
2022/11/07 07:26:24;;;;;;;6.50;2.33;;;9.10;99.90;;;;;;5035095;28;20175;-86
2022/11/07 07:28:50;;;;;;;4.97;2.30;;;9.20;99.90;;;;;;5017690;28;20179;-87
2022/11/07 07:31:34;;;;;;;5.77;2.40;;;9.20;99.90;;;;;;5033490;28;20228;-87
2022/11/07 07:34:00;;;;;;;3.67;2.37;;;9.20;99.90;;;;;;5033764;28;20210;-87
2022/11/07 07:36:26;;;;;;;4.17;3.00;;;9.20;99.90;;;;;;5034222;28;20179;-87
2022/11/07 07:38:52;;;;;;;5.03;3.13;;;9.30;99.90;;;;;;5033510;28;20182;-87
2022/11/07 07:41:20;;;;;;;3.97;2.87;;;9.30;99.90;;;;;;5033592;28;20171;-87
2022/11/07 07:43:46;;;;;;;6.57;2.70;;;9.30;99.90;;;;;;5033708;28;20252;-87
2022/11/07 07:46:20;;;;;;;5.20;2.83;;;9.30;99.90;;;;;;5033797;28;20182;-86
2022/11/07 07:48:45;;;;;;;6.40;3.90;;;9.30;99.90;;;;;;5033225;28;20182;-86
2022/11/07 07:51:11;;;;;;;16.53;8.63;;;9.40;99.90;;;;;;5050147;28;20185;-87
2022/11/07 07:53:37;;;;;;;10.73;5.60;;;9.40;99.90;;;;;;5031943;28;20290;-87
2022/11/07 07:56:05;;;;;;;8.43;3.77;;;9.50;99.90;;;;;;5016636;28;20182;-86
2022/11/07 07:58:31;;;;;;;7.07;2.60;;;9.60;99.90;;;;;;5016940;28;20182;-86
2022/11/07 08:00:57;;;;;;;6.13;2.30;;;9.70;99.90;;;;;;5033330;28;20658;-86
2022/11/07 08:03:24;;;;;;;4.83;2.70;;;9.80;99.90;;;;;;5033448;28;20191;-86
2022/11/07 08:05:56;;;;;;;4.97;2.30;;;9.90;99.90;;;;;;5017169;28;20170;-88
2022/11/07 08:08:23;;;;;;;3.33;1.90;;;9.90;99.90;;;;;;5007599;28;20191;-86
2022/11/07 08:10:55;;;;;;;8.17;2.40;;;10.00;99.90;;;;;;5005746;28;20191;-87
2022/11/07 08:13:23;;;;;;;11.10;2.83;;;10.10;99.90;;;;;;5005516;28;20215;-86
2022/11/07 08:15:50;;;;;;;4.03;2.63;;;10.20;99.90;;;;;;5005198;28;20175;-87
2022/11/07 08:18:18;;;;;;;5.10;2.37;;;10.30;99.90;;;;;;5011031;28;20229;-87
2022/11/07 08:20:45;;;;;;;3.00;1.70;;;10.30;99.90;;;;;;5002390;28;20184;-87
2022/11/07 08:23:11;;;;;;;3.10;1.57;;;10.40;99.90;;;;;;5036011;28;20202;-85
2022/11/07 08:25:38;;;;;;;3.73;1.60;;;10.50;99.90;;;;;;5002303;28;20649;-86
2022/11/07 08:28:04;;;;;;;4.97;2.03;;;10.50;99.90;;;;;;5025593;28;20172;-85
2022/11/07 08:30:40;;;;;;;3.90;1.97;;;10.60;99.90;;;;;;5017483;28;20178;-86
2022/11/07 08:33:13;;;;;;;8.53;1.83;;;10.70;99.90;;;;;;5028509;28;20208;-86
2022/11/07 08:35:39;;;;;;;7.57;2.10;;;10.80;99.90;;;;;;5024808;28;20178;-86
2022/11/07 08:38:05;;;;;;;3.67;1.80;;;10.90;99.90;;;;;;5041043;28;20178;-85
2022/11/07 08:40:31;;;;;;;2.63;1.90;;;10.90;99.90;;;;;;5025372;28;20179;-86
2022/11/07 08:43:00;;;;;;;6.80;2.37;;;10.90;99.90;;;;;;5025283;28;20627;-86
2022/11/07 08:45:33;;;;;;;7.50;1.93;;;11.00;99.90;;;;;;5025355;28;20286;-86
2022/11/07 08:48:00;;;;;;;2.60;1.80;;;11.10;99.90;;;;;;5041503;28;20228;-85
2022/11/07 08:50:26;;;;;;;5.07;1.97;;;11.10;99.90;;;;;;5017375;28;20267;-86
2022/11/07 08:52:52;;;;;;;4.57;1.60;;;11.20;99.90;;;;;;5031472;28;20254;-80
2022/11/07 08:55:18;;;;;;;4.80;1.57;;;11.20;99.90;;;;;;5033461;28;20199;-86
2022/11/07 08:57:46;;;;;;;5.10;1.60;;;11.30;99.90;;;;;;5041134;28;20202;-86
2022/11/07 09:00:16;;;;;;;2.53;1.60;;;11.40;99.90;;;;;;5030687;28;20188;-86
2022/11/07 09:02:48;;;;;;;4.57;1.50;;;11.50;99.90;;;;;;5001685;28;20290;-86
2022/11/07 09:05:17;;;;;;;4.87;2.00;;;11.60;99.90;;;;;;5006558;28;20211;-86
2022/11/07 09:07:43;;;;;;;5.23;1.90;;;11.60;99.90;;;;;;5031826;28;20663;-85
2022/11/07 09:10:18;;;;;;;5.00;1.73;;;11.70;99.90;;;;;;5016185;28;20259;-86
2022/11/07 09:13:32;;;;;;;4.10;1.67;;;11.80;99.90;;;;;;5032063;28;20192;-86
2022/11/07 09:16:03;;;;;;;3.23;1.63;;;11.90;99.90;;;;;;5013173;28;20199;-86
2022/11/07 09:18:31;;;;;;;5.03;2.17;;;12.00;99.90;;;;;;5031383;28;20177;-86
2022/11/07 09:20:57;;;;;;;6.03;2.07;;;12.00;99.90;;;;;;5031892;28;20226;-86
2022/11/07 09:23:24;;;;;;;7.03;2.23;;;12.00;99.90;;;;;;5031483;28;20220;-86
2022/11/07 09:25:50;;;;;;;5.57;1.60;;;12.10;99.90;;;;;;5015415;28;20228;-86
2022/11/07 09:28:16;;;;;;;6.67;1.80;;;12.20;99.90;;;;;;5015109;28;20217;-86
2022/11/07 09:30:45;;;;;;;6.03;1.80;;;12.30;99.90;;;;;;5013960;28;20280;-86
2022/11/07 09:33:10;;;;;;;4.73;1.73;;;12.30;99.90;;;;;;5013056;28;20209;-87
2022/11/07 09:35:36;;;;;;;4.90;1.50;;;12.40;99.90;;;;;;5014914;28;20262;-87
2022/11/07 09:38:02;;;;;;;3.83;1.70;;;12.50;99.90;;;;;;5031243;28;20177;-86
2022/11/07 09:40:39;;;;;;;6.67;1.87;;;12.50;99.90;;;;;;5031703;28;20208;-86
2022/11/07 09:43:29;;;;;;;4.03;1.30;;;12.60;99.90;;;;;;5030615;28;20724;-86
2022/11/07 09:45:55;;;;;;;4.23;1.30;;;12.60;99.90;;;;;;5031590;28;20177;-86
2022/11/07 09:48:25;;;;;;;5.10;1.83;;;12.60;99.90;;;;;;5047993;28;20178;-86
2022/11/07 09:50:51;;;;;;;5.00;1.50;;;12.60;99.90;;;;;;5031553;28;20281;-86
2022/11/07 09:53:32;;;;;;;5.27;1.30;;;12.70;99.90;;;;;;5031421;28;20217;-86
2022/11/07 09:56:03;;;;;;;3.90;1.33;;;12.70;99.90;;;;;;5031353;28;20185;-86
2022/11/07 09:58:40;;;;;;;5.23;1.63;;;12.70;99.90;;;;;;5047954;28;20166;-87
2022/11/07 10:01:12;;;;;;;4.80;1.47;;;12.70;99.90;;;;;;5031789;28;20176;-86
2022/11/07 10:03:38;;;;;;;5.10;1.57;;;12.80;99.90;;;;;;5031543;28;20195;-86
2022/11/07 10:06:26;;;;;;;4.57;1.40;;;12.80;99.90;;;;;;5017890;28;20194;-86
2022/11/07 10:09:04;;;;;;;4.33;1.30;;;12.90;99.90;;;;;;5015632;28;20544;-86
2022/11/07 10:11:50;;;;;;;3.57;1.23;;;12.90;99.90;;;;;;5015897;28;20179;-86
2022/11/07 10:14:27;;;;;;;9.30;1.87;;;13.00;99.90;;;;;;5015346;28;20225;-87
2022/11/07 10:17:16;;;;;;;5.87;1.70;;;13.10;99.90;;;;;;5015649;28;20237;-86
2022/11/07 10:20:00;;;;;;;4.70;1.50;;;13.20;99.90;;;;;;5015683;28;20187;-87
2022/11/07 10:23:08;;;;;;;5.10;1.57;;;13.20;99.90;;;;;;5015333;28;20185;-86
2022/11/07 10:25:56;;;;;;;4.40;1.23;;;13.30;99.90;;;;;;4998992;28;20289;-87
2022/11/07 10:28:26;;;;;;;2.70;1.30;;;13.40;99.90;;;;;;5015616;28;20219;-87
2022/11/07 10:30:54;;;;;;;4.40;1.33;;;13.40;99.90;;;;;;5015421;28;20183;-86
2022/11/07 10:33:43;;;;;;;2.93;1.10;;;13.40;99.90;;;;;;5014988;28;20217;-87
2022/11/07 10:36:23;;;;;;;3.93;1.30;;;13.40;99.90;;;;;;5031572;28;20187;-86
2022/11/07 10:38:50;;;;;;;3.30;1.30;;;13.50;99.90;;;;;;5014865;28;20179;-86
2022/11/07 10:41:19;;;;;;;2.77;1.20;;;13.60;99.90;;;;;;5015417;28;20179;-87
2022/11/07 10:43:52;;;;;;;3.23;1.20;;;13.70;99.90;;;;;;5014786;28;20229;-86
2022/11/07 10:46:23;;;;;;;4.20;1.40;;;13.80;99.90;;;;;;5015198;28;20262;-86
2022/11/07 10:49:00;;;;;;;4.53;1.30;;;13.80;99.90;;;;;;5014813;28;20270;-86
2022/11/07 10:52:04;;;;;;;1.80;1.00;;;13.90;99.90;;;;;;5015131;28;20205;-86
2022/11/07 10:54:30;;;;;;;2.67;1.03;;;14.00;99.90;;;;;;5014666;28;20207;-86
2022/11/07 10:57:28;;;;;;;2.73;1.03;;;14.00;99.90;;;;;;5014461;28;20175;-86
2022/11/07 10:59:57;;;;;;;3.20;1.03;;;14.00;99.90;;;;;;5007409;28;20214;-86
2022/11/07 11:02:29;;;;;;;2.90;1.20;;;14.10;99.90;;;;;;5017095;28;20272;-86
2022/11/07 11:05:03;;;;;;;2.20;1.00;;;14.10;99.90;;;;;;5033383;28;20202;-86
2022/11/07 11:07:39;;;;;;;4.90;1.43;;;14.10;99.90;;;;;;5034467;28;20184;-86
2022/11/07 11:10:21;;;;;;;2.40;0.90;;;14.10;99.90;;;;;;5034552;28;20182;-86
2022/11/07 11:12:50;;;;;;;1.70;0.97;;;14.10;99.90;;;;;;5050773;28;20185;-86
2022/11/07 11:15:21;;;;;;;4.20;1.40;;;14.10;99.90;;;;;;5034041;28;20203;-86
2022/11/07 11:18:15;;;;;;;2.37;1.00;;;14.10;99.90;;;;;;5020464;28;20601;-86
2022/11/07 11:21:01;;;;;;;3.40;1.00;;;14.30;99.90;;;;;;5051260;28;20159;-86
2022/11/07 11:23:40;;;;;;;3.77;1.03;;;14.40;99.90;;;;;;5045028;28;20221;-86
2022/11/07 11:26:35;;;;;;;4.57;1.03;;;14.50;99.90;;;;;;5017793;28;20178;-86
2022/11/07 11:29:06;;;;;;;2.33;1.40;;;14.60;99.90;;;;;;5048430;28;20191;-86
2022/11/07 11:31:49;;;;;;;2.90;1.20;;;14.60;99.90;;;;;;5018188;28;20182;-86
2022/11/07 11:34:26;;;;;;;3.37;1.10;;;14.60;99.90;;;;;;5017467;28;20218;-86
2022/11/07 11:37:13;;;;;;;2.97;1.20;;;14.50;99.90;;;;;;5033944;28;20212;-86
2022/11/07 11:39:54;;;;;;;1.17;0.77;;;14.50;99.90;;;;;;5034647;28;20175;-86
2022/11/07 11:42:38;;;;;;;4.03;0.97;;;14.50;99.90;;;;;;5034170;28;20197;-86
2022/11/07 11:45:22;;;;;;;3.00;1.20;;;14.50;99.90;;;;;;5034147;28;20248;-86
2022/11/07 11:48:00;;;;;;;3.13;1.10;;;14.50;99.90;;;;;;5033856;28;20175;-86
2022/11/07 11:50:51;;;;;;;3.20;1.10;;;14.50;99.90;;;;;;5050301;28;20183;-86
2022/11/07 11:53:19;;;;;;;3.37;1.37;;;14.50;99.90;;;;;;5007593;28;20237;-86
2022/11/07 11:56:07;;;;;;;2.93;1.23;;;14.50;99.90;;;;;;5017187;28;20179;-86
2022/11/07 11:58:55;;;;;;;4.90;1.23;;;14.50;99.90;;;;;;5017114;28;20178;-86
2022/11/07 12:01:48;;;;;;;5.33;1.23;;;14.50;99.90;;;;;;5033738;28;20167;-86
2022/11/07 12:04:39;;;;;;;3.97;0.90;;;14.50;99.90;;;;;;5017093;28;20253;-86
2022/11/07 12:07:30;;;;;;;2.97;0.83;;;14.50;99.90;;;;;;5033032;28;20186;-86
2022/11/07 12:10:13;;;;;;;3.57;1.30;;;14.50;99.90;;;;;;5016950;28;20186;-86
2022/11/07 12:13:04;;;;;;;3.40;1.10;;;14.50;99.90;;;;;;5033277;28;20171;-86
2022/11/07 12:15:36;;;;;;;4.13;1.30;;;14.60;99.90;;;;;;5012390;28;20183;-87
2022/11/07 12:18:36;;;;;;;4.37;1.87;;;14.70;99.90;;;;;;5022902;28;20197;-86
2022/11/07 12:21:22;;;;;;;5.30;1.87;;;14.80;99.90;;;;;;5033409;28;20186;-86
2022/11/07 12:24:24;;;;;;;2.93;1.07;;;15.00;99.90;;;;;;5033093;28;20297;-87
2022/11/07 12:27:05;;;;;;;3.20;1.20;;;15.30;99.90;;;;;;5012291;28;20183;-86
2022/11/07 12:29:53;;;;;;;3.10;1.00;;;15.50;99.90;;;;;;5033405;28;20208;-86
2022/11/07 12:32:42;;;;;;;5.23;1.23;;;15.50;99.90;;;;;;5033178;28;20278;-87
2022/11/07 12:35:26;;;;;;;3.03;0.80;;;15.50;99.90;;;;;;5013074;28;20222;-86
2022/11/07 12:38:04;;;;;;;2.07;0.90;;;15.60;99.90;;;;;;5032773;28;20197;-86
2022/11/07 12:40:56;;;;;;;4.60;1.30;;;15.70;99.90;;;;;;5033135;28;20179;-87
2022/11/07 12:43:49;;;;;;;3.03;1.00;;;15.80;99.90;;;;;;5032353;28;20203;-86
2022/11/07 12:46:29;;;;;;;2.77;0.90;;;15.70;99.90;;;;;;5033141;28;20198;-86
2022/11/07 12:49:04;;;;;;;3.37;1.00;;;15.40;99.90;;;;;;5033230;28;20182;-87
2022/11/07 12:51:30;;;;;;;3.50;1.20;;;15.20;99.90;;;;;;5033410;28;20170;-86
2022/11/07 12:54:10;;;;;;;3.30;0.97;;;15.10;99.90;;;;;;5032950;28;20213;-86
2022/11/07 12:56:38;;;;;;;3.73;1.00;;;15.00;99.90;;;;;;5015262;28;20225;-87
2022/11/07 12:59:11;;;;;;;1.93;1.00;;;15.00;99.90;;;;;;5031893;28;20213;-86
2022/11/07 13:02:12;;;;;;;3.10;1.00;;;15.00;99.90;;;;;;5032740;28;20183;-86
2022/11/07 13:04:43;;;;;;;3.83;1.30;;;15.00;99.90;;;;;;5011882;28;20210;-86
2022/11/07 13:07:36;;;;;;;3.33;1.20;;;15.00;99.90;;;;;;5015014;28;20182;-86
2022/11/07 13:10:18;;;;;;;4.00;1.67;;;15.00;99.90;;;;;;5015510;28;20184;-87
2022/11/07 13:13:16;;;;;;;3.13;1.00;;;15.00;99.90;;;;;;5015710;28;20635;-87
2022/11/07 13:15:42;;;;;;;1.97;0.90;;;15.00;99.90;;;;;;5012163;28;20229;-86
2022/11/07 13:18:25;;;;;;;5.27;1.30;;;15.00;99.90;;;;;;4996030;28;20214;-86
2022/11/07 13:21:03;;;;;;;3.93;1.00;;;15.00;99.90;;;;;;5016099;28;20185;-86
2022/11/07 13:23:31;;;;;;;2.13;1.00;;;15.00;99.90;;;;;;5003584;28;20218;-87
2022/11/07 13:26:03;;;;;;;2.77;1.13;;;15.00;99.90;;;;;;4996931;28;20179;-86